CheckWX is a tool to help pilots better visualize weather data.  It is not intended as a substitute for an official pre-flight weather briefing.

16:59:09 UTC

KLQK METAR
Pickens County Airport
Pickens, South Carolina, USA
Current

24 mins ago

KLQK 121635Z AUTO 22007KT 10SM CLR 30/19 A2990 RMK AO2 T03000190
Observed
Jul-12 @ 16:35 UTC
Wind
  • 220° at 7 KTS
Visibility
10 SM
Flight Rules
VFR
Cloud Levels
  • Clear skies
Temperature
30°C / 86°F
Dewpoint
19°C / 66°F
Humidity
52%
Altimeter
29.9" Hg
Pressure
1012.52 hPa
Previous

44 mins ago

KLQK 121615Z AUTO 23005KT 10SM CLR 30/19 A2989 RMK AO2 T03040191
Observed
Jul-12 @ 16:15 UTC
Wind
  • 230° at 5 KTS
Visibility
10 SM
Flight Rules
VFR
Cloud Levels
  • Clear skies
Temperature
30°C / 86°F
Dewpoint
19°C / 66°F
Humidity
52%
Altimeter
29.89" Hg
Pressure
1012.22 hPa
Previous

1 hour ago

KLQK 121555Z AUTO 23006KT 10SM CLR 30/19 A2989 RMK AO2 T03020186
Observed
Jul-12 @ 15:55 UTC
Wind
  • 230° at 6 KTS
Visibility
10 SM
Flight Rules
VFR
Cloud Levels
  • Clear skies
Temperature
30°C / 86°F
Dewpoint
19°C / 66°F
Humidity
52%
Altimeter
29.89" Hg
Pressure
1012.22 hPa